createdAt,value
2023-03-29T00:00:49.600Z,100368.97
2023-03-29T00:03:16.814Z,100374.22
2023-03-29T00:05:43.500Z,100375.91
2023-03-29T00:08:10.158Z,100373.09
2023-03-29T00:10:37.966Z,100368.00
2023-03-29T00:13:04.470Z,100368.97
2023-03-29T00:15:30.922Z,100372.25
2023-03-29T00:17:57.560Z,100372.38
2023-03-29T00:20:24.076Z,100366.28
2023-03-29T00:22:50.596Z,100362.75
2023-03-29T00:25:17.233Z,100359.97
2023-03-29T00:27:45.056Z,100355.56
2023-03-29T00:30:12.422Z,100347.53
2023-03-29T00:32:38.967Z,100337.81
2023-03-29T00:35:06.177Z,100345.72
2023-03-29T00:37:33.135Z,100337.56
2023-03-29T00:39:59.837Z,100339.50
2023-03-29T00:42:26.682Z,100336.13
2023-03-29T00:44:59.332Z,100335.28
2023-03-29T00:47:28.753Z,100343.16
2023-03-29T00:49:57.990Z,100342.31
2023-03-29T00:52:24.669Z,100342.31
2023-03-29T00:54:55.507Z,100330.78
2023-03-29T00:57:23.974Z,100331.63
2023-03-29T00:59:52.423Z,100338.06
2023-03-29T01:02:23.552Z,100334.41
2023-03-29T01:04:56.017Z,100331.63
2023-03-29T01:07:25.745Z,100334.41
2023-03-29T01:09:55.715Z,100334.53
2023-03-29T01:12:27.840Z,100332.59
2023-03-29T01:14:59.295Z,100337.81
2023-03-29T01:17:27.166Z,100322.13
2023-03-29T01:19:59.542Z,100316.63
2023-03-29T01:22:34.741Z,100320.16
2023-03-29T01:25:10.901Z,100318.34
2023-03-29T01:27:47.291Z,100315.94
2023-03-29T01:30:17.857Z,100328.19
2023-03-29T01:32:48.376Z,100313.97
2023-03-29T01:35:20.898Z,100321.88
2023-03-29T01:37:52.936Z,100312.97
2023-03-29T01:40:19.576Z,100314.94
2023-03-29T01:42:53.178Z,100310.44
2023-03-29T01:45:24.558Z,100308.50
2023-03-29T01:47:57.498Z,100310.44
2023-03-29T01:50:36.209Z,100314.69
2023-03-29T01:53:07.798Z,100310.31
2023-03-29T01:55:39.179Z,100308.84
2023-03-29T01:58:10.309Z,100314.69
2023-03-29T02:00:38.571Z,100311.28
2023-03-29T02:03:09.032Z,100313.25
2023-03-29T02:05:36.894Z,100307.03
2023-03-29T02:08:07.101Z,100310.59
2023-03-29T02:10:34.816Z,100293.78
2023-03-29T02:13:01.310Z,100288.41
2023-03-29T02:15:29.257Z,100286.72
2023-03-29T02:17:55.858Z,100284.75
2023-03-29T02:20:27.236Z,100294.63
2023-03-29T02:23:00.128Z,100283.06
2023-03-29T02:25:26.672Z,100291.25
2023-03-29T02:27:53.903Z,100284.75
2023-03-29T02:30:21.284Z,100287.44
2023-03-29T02:32:57.074Z,100283.81
2023-03-29T02:35:31.094Z,100279.41
2023-03-29T02:37:58.746Z,100277.72
2023-03-29T02:40:25.796Z,100280.38
2023-03-29T02:42:55.528Z,100271.50
2023-03-29T02:45:24.789Z,100268.44
2023-03-29T02:47:56.792Z,100264.19
2023-03-29T02:50:24.791Z,100258.97
2023-03-29T02:52:55.016Z,100258.22
2023-03-29T02:55:25.054Z,100247.53
2023-03-29T02:57:51.719Z,100244.84
2023-03-29T03:00:18.893Z,100235.97
2023-03-29T03:02:46.713Z,100237.69
2023-03-29T03:05:14.625Z,100237.69
2023-03-29T03:07:41.275Z,100233.28
2023-03-29T03:10:08.751Z,100236.81
2023-03-29T03:12:35.411Z,100229.75
2023-03-29T03:15:01.985Z,100231.47
2023-03-29T03:17:28.512Z,100231.53
2023-03-29T03:19:55.024Z,100239.53
2023-03-29T03:22:22.821Z,100232.66
2023-03-29T03:24:49.281Z,100228.75
2023-03-29T03:27:15.783Z,100230.06
2023-03-29T03:29:42.424Z,100222.00
2023-03-29T03:32:09.101Z,100214.56
2023-03-29T03:34:35.598Z,100213.56
2023-03-29T03:37:02.137Z,100214.03
2023-03-29T03:39:30.044Z,100216.72
2023-03-29T03:41:56.519Z,100212.94
2023-03-29T03:44:23.140Z,100206.59
2023-03-29T03:46:49.600Z,100210.84
2023-03-29T03:49:16.127Z,100212.69
2023-03-29T03:51:42.567Z,100194.63
2023-03-29T03:54:09.011Z,100190.00
2023-03-29T03:56:36.865Z,100185.31
2023-03-29T03:59:03.359Z,100186.47
2023-03-29T04:01:29.856Z,100181.53
2023-03-29T04:03:56.504Z,100179.72
2023-03-29T04:06:23.049Z,100178.13
2023-03-29T04:08:49.530Z,100176.03
2023-03-29T04:11:16.190Z,100169.72
2023-03-29T04:13:43.949Z,100177.50
2023-03-29T04:16:10.507Z,100174.81
2023-03-29T04:18:37.176Z,100178.44
2023-03-29T04:21:04.282Z,100166.88
2023-03-29T04:23:30.894Z,100178.06
2023-03-29T04:25:57.372Z,100177.09
2023-03-29T04:28:23.834Z,100184.41
2023-03-29T04:30:51.577Z,100174.41
2023-03-29T04:33:18.253Z,100173.28
2023-03-29T04:35:44.752Z,100186.53
2023-03-29T04:38:11.223Z,100195.56
2023-03-29T04:40:38.202Z,100192.63
2023-03-29T04:43:04.734Z,100179.09
2023-03-29T04:45:31.198Z,100177.66
2023-03-29T04:47:59.131Z,100186.44
2023-03-29T04:50:25.631Z,100179.22
2023-03-29T04:52:52.089Z,100160.31
2023-03-29T04:55:18.845Z,100153.03
2023-03-29T04:57:45.314Z,100157.25
2023-03-29T05:00:12.511Z,100161.78
2023-03-29T05:02:39.021Z,100160.09
2023-03-29T05:05:07.129Z,100150.19
2023-03-29T05:07:33.622Z,100151.28
2023-03-29T05:10:00.165Z,100163.50
2023-03-29T05:12:26.669Z,100161.78
2023-03-29T05:14:53.563Z,100161.78
2023-03-29T05:17:20.078Z,100161.25
2023-03-29T05:19:46.613Z,100149.75
2023-03-29T05:22:14.518Z,100155.72
2023-03-29T05:24:41.352Z,100153.47
2023-03-29T05:27:07.805Z,100149.09
2023-03-29T05:29:34.273Z,100143.84
2023-03-29T05:32:00.807Z,100149.78
2023-03-29T05:34:27.368Z,100152.63
2023-03-29T05:36:53.883Z,100148.25
2023-03-29T05:39:21.636Z,100149.66
2023-03-29T05:41:48.085Z,100149.78
2023-03-29T05:44:14.593Z,100148.81
2023-03-29T05:46:41.193Z,100159.53
2023-03-29T05:49:07.677Z,100155.16
2023-03-29T05:51:34.388Z,100157.72
2023-03-29T05:54:01.256Z,100150.78
2023-03-29T05:56:29.026Z,100160.25
2023-03-29T05:58:55.631Z,100164.75
2023-03-29T06:01:22.506Z,100160.97
2023-03-29T06:03:49.417Z,100160.81
2023-03-29T06:06:16.077Z,100171.69
2023-03-29T06:08:43.825Z,100162.81
2023-03-29T06:11:12.117Z,100161.78
2023-03-29T06:13:40.186Z,100168.59
2023-03-29T06:16:07.607Z,100153.38
2023-03-29T06:18:34.657Z,100158.56
2023-03-29T06:21:01.609Z,100161.91
2023-03-29T06:23:28.943Z,100155.38
2023-03-29T06:25:55.990Z,100158.06
2023-03-29T06:28:23.120Z,100158.84
2023-03-29T06:30:51.079Z,100164.31
2023-03-29T06:33:17.618Z,100158.13
2023-03-29T06:35:47.142Z,100161.84
2023-03-29T06:38:13.903Z,100162.56
2023-03-29T06:40:40.935Z,100161.84
2023-03-29T06:43:07.449Z,100161.41
2023-03-29T06:45:37.036Z,100164.31
2023-03-29T06:48:06.013Z,100165.31
2023-03-29T06:50:32.730Z,100168.84
2023-03-29T06:52:59.283Z,100160.19
2023-03-29T06:55:26.257Z,100174.78
2023-03-29T06:57:54.143Z,100176.69
2023-03-29T07:00:21.579Z,100176.22
2023-03-29T07:02:48.390Z,100171.59
2023-03-29T07:05:16.408Z,100164.69
2023-03-29T07:07:45.693Z,100165.91
2023-03-29T07:10:12.434Z,100163.47
2023-03-29T07:12:38.902Z,100164.81
2023-03-29T07:15:06.062Z,100164.94
2023-03-29T07:17:32.593Z,100163.97
2023-03-29T07:19:59.106Z,100160.03
2023-03-29T07:22:26.986Z,100164.81
2023-03-29T07:24:53.421Z,100171.28
2023-03-29T07:27:19.993Z,100174.00
2023-03-29T07:29:46.469Z,100179.50
2023-03-29T07:32:13.010Z,100175.44
2023-03-29T07:34:39.561Z,100171.97
2023-03-29T07:37:06.032Z,100175.03
2023-03-29T07:39:34.150Z,100174.53
2023-03-29T07:42:00.726Z,100184.41
2023-03-29T07:44:27.163Z,100174.78
2023-03-29T07:46:53.615Z,100178.44
2023-03-29T07:49:22.101Z,100179.28
2023-03-29T07:51:48.760Z,100179.63
2023-03-29T07:54:15.405Z,100169.16
2023-03-29T07:56:43.263Z,100172.56
2023-03-29T07:59:09.907Z,100160.41
2023-03-29T08:01:36.413Z,100153.63
2023-03-29T08:04:03.056Z,100158.25
2023-03-29T08:06:29.582Z,100160.03
2023-03-29T08:08:56.009Z,100168.38
2023-03-29T08:11:22.483Z,100164.00
2023-03-29T08:13:50.286Z,100160.75
2023-03-29T08:16:16.794Z,100151.88
2023-03-29T08:18:43.418Z,100156.56
2023-03-29T08:21:10.056Z,100145.41
2023-03-29T08:23:36.598Z,100150.28
2023-03-29T08:26:03.273Z,100148.53
2023-03-29T08:28:29.723Z,100158.56
2023-03-29T08:30:57.720Z,100154.63
2023-03-29T08:33:24.268Z,100157.53
2023-03-29T08:35:50.838Z,100155.53
2023-03-29T08:38:17.401Z,100157.22
2023-03-29T08:40:48.313Z,100148.13
2023-03-29T08:43:24.478Z,100153.16
2023-03-29T08:46:08.358Z,100130.84
2023-03-29T08:48:38.680Z,100138.53
2023-03-29T08:51:17.457Z,100130.63
2023-03-29T08:53:49.798Z,100141.59
2023-03-29T08:56:20.784Z,100134.56
2023-03-29T08:58:50.267Z,100116.53
2023-03-29T09:01:19.932Z,100115.81
2023-03-29T09:03:49.771Z,100108.88
2023-03-29T09:06:20.536Z,100114.72
2023-03-29T09:08:49.078Z,100095.50
2023-03-29T09:11:28.486Z,100091.13
2023-03-29T09:14:06.302Z,100093.22
2023-03-29T09:16:42.572Z,100079.81
2023-03-29T09:19:19.818Z,100078.00
2023-03-29T09:21:56.619Z,100076.31
2023-03-29T09:24:40.585Z,100072.53
2023-03-29T09:27:10.916Z,100075.19
2023-03-29T09:29:49.712Z,100065.19
2023-03-29T09:32:21.343Z,100066.75
2023-03-29T09:34:58.728Z,100062.84
2023-03-29T09:37:32.153Z,100055.78
2023-03-29T09:39:59.188Z,100056.63
2023-03-29T09:42:28.922Z,100052.84
2023-03-29T09:45:00.216Z,100057.22
2023-03-29T09:47:31.202Z,100045.91
2023-03-29T09:50:02.093Z,100047.75
2023-03-29T09:52:28.664Z,100039.19
2023-03-29T09:54:55.152Z,100036.78
2023-03-29T09:57:21.807Z,100039.72
2023-03-29T09:59:50.467Z,100040.00
2023-03-29T10:02:19.948Z,100040.25
2023-03-29T10:04:53.132Z,100035.03
2023-03-29T10:07:20.148Z,100033.22
2023-03-29T10:09:48.898Z,100031.53
2023-03-29T10:12:16.244Z,100042.34
2023-03-29T10:14:45.948Z,100033.91
2023-03-29T10:17:20.345Z,100029.84
2023-03-29T10:19:50.191Z,100032.53
2023-03-29T10:22:19.390Z,100026.88
2023-03-29T10:24:51.854Z,100028.97
2023-03-29T10:27:23.362Z,100012.69
2023-03-29T10:29:50.985Z,100010.19
2023-03-29T10:32:25.310Z,100000.06
2023-03-29T10:34:54.449Z,100006.00
2023-03-29T10:37:21.526Z,100009.41
2023-03-29T10:39:48.861Z,99996.28
2023-03-29T10:42:17.307Z,99993.09
2023-03-29T10:44:52.799Z,100008.09
2023-03-29T10:47:20.993Z,99998.81
2023-03-29T10:49:51.814Z,100002.78
2023-03-29T10:52:21.385Z,99992.59
2023-03-29T10:54:50.314Z,99991.34
2023-03-29T10:57:29.627Z,99989.94
2023-03-29T11:00:01.470Z,99993.06
2023-03-29T11:02:50.957Z,99979.22
2023-03-29T11:05:24.978Z,99974.97
2023-03-29T11:08:09.262Z,99981.34
2023-03-29T11:10:45.254Z,99970.75
2023-03-29T11:13:20.274Z,99963.00
2023-03-29T11:15:58.582Z,99963.25
2023-03-29T11:18:40.963Z,99949.28
2023-03-29T11:21:15.119Z,99953.69
2023-03-29T11:23:49.988Z,99950.44
2023-03-29T11:26:21.913Z,99938.59
2023-03-29T11:28:52.837Z,99939.44
2023-03-29T11:31:32.665Z,99933.69
2023-03-29T11:34:12.177Z,99944.84
2023-03-29T11:36:45.324Z,99941.94
2023-03-29T11:39:23.558Z,99947.16
2023-03-29T11:41:54.790Z,99951.78
2023-03-29T11:44:27.114Z,99954.34
2023-03-29T11:46:59.216Z,99947.88
2023-03-29T11:49:32.070Z,99938.09
2023-03-29T11:52:03.608Z,99939.25
2023-03-29T11:54:36.916Z,99930.78
2023-03-29T11:57:07.861Z,99916.81
2023-03-29T11:59:40.099Z,99923.72
2023-03-29T12:02:16.424Z,99926.41
2023-03-29T12:04:48.393Z,99916.81
2023-03-29T12:07:19.478Z,99906.91
2023-03-29T12:09:51.079Z,99910.59
2023-03-29T12:12:21.810Z,99914.81
2023-03-29T12:14:56.295Z,99912.00
2023-03-29T12:17:30.497Z,99904.69
2023-03-29T12:20:05.550Z,99909.63
2023-03-29T12:22:32.956Z,99910.00
2023-03-29T12:25:04.585Z,99917.13
2023-03-29T12:27:36.234Z,99909.91
2023-03-29T12:30:23.276Z,99906.41
2023-03-29T12:33:08.019Z,99888.31
2023-03-29T12:35:41.948Z,99887.47
2023-03-29T12:38:19.387Z,99877.59
2023-03-29T12:40:53.466Z,99874.78
2023-03-29T12:43:24.723Z,99884.78
2023-03-29T12:45:55.314Z,99882.25
2023-03-29T12:48:24.756Z,99882.09
2023-03-29T12:50:54.150Z,99892.72
2023-03-29T12:53:23.942Z,99879.44
2023-03-29T12:55:56.158Z,99868.69
2023-03-29T12:58:27.696Z,99873.63
2023-03-29T13:01:06.226Z,99864.75
2023-03-29T13:03:46.561Z,99860.94
2023-03-29T13:06:13.047Z,99857.41
2023-03-29T13:08:42.100Z,99859.38
2023-03-29T13:11:13.101Z,99851.91
2023-03-29T13:13:41.571Z,99850.38
2023-03-29T13:16:12.757Z,99854.16
2023-03-29T13:18:53.294Z,99857.84
2023-03-29T13:21:28.735Z,99854.84
2023-03-29T13:24:01.974Z,99864.31
2023-03-29T13:26:40.409Z,99851.63
2023-03-29T13:29:33.059Z,99851.22
2023-03-29T13:32:05.804Z,99848.53
2023-03-29T13:34:38.856Z,99845.56
2023-03-29T13:37:17.932Z,99851.63
2023-03-29T13:39:49.733Z,99836.66
2023-03-29T13:42:23.917Z,99831.31
2023-03-29T13:44:51.060Z,99830.63
2023-03-29T13:47:36.643Z,99829.91
2023-03-29T13:50:10.274Z,99830.75
2023-03-29T13:52:41.317Z,99820.75
2023-03-29T13:55:16.124Z,99818.22
2023-03-29T13:57:50.918Z,99809.47
2023-03-29T14:00:22.483Z,99812.53
2023-03-29T14:02:51.947Z,99803.81
2023-03-29T14:05:23.370Z,99803.09
2023-03-29T14:07:52.050Z,99811.28
2023-03-29T14:10:24.007Z,99812.41
2023-03-29T14:12:53.556Z,99822.84
2023-03-29T14:15:23.899Z,99817.75
2023-03-29T14:17:54.762Z,99819.63
2023-03-29T14:20:21.526Z,99822.69
2023-03-29T14:22:48.227Z,99820.00
2023-03-29T14:25:17.654Z,99813.50
2023-03-29T14:27:44.944Z,99815.06
2023-03-29T14:30:25.185Z,99804.47
2023-03-29T14:32:51.728Z,99812.78
2023-03-29T14:35:18.504Z,99804.06
2023-03-29T14:37:47.697Z,99794.03
2023-03-29T14:40:17.994Z,99795.03
2023-03-29T14:42:46.174Z,99790.66
2023-03-29T14:45:15.975Z,99793.06
2023-03-29T14:47:44.938Z,99790.50
2023-03-29T14:50:23.221Z,99781.16
2023-03-29T14:52:52.428Z,99774.84
2023-03-29T14:55:19.528Z,99772.56
2023-03-29T14:57:47.152Z,99769.63
2023-03-29T15:00:21.454Z,99764.59
2023-03-29T15:02:54.057Z,99763.59
2023-03-29T15:05:25.747Z,99756.94
2023-03-29T15:07:52.295Z,99758.47
2023-03-29T15:10:19.696Z,99752.28
2023-03-29T15:12:46.270Z,99751.41
2023-03-29T15:15:13.529Z,99748.72
2023-03-29T15:17:50.949Z,99736.88
2023-03-29T15:20:24.319Z,99733.63
2023-03-29T15:22:55.890Z,99725.22
2023-03-29T15:25:22.453Z,99725.34
2023-03-29T15:27:51.018Z,99729.41
2023-03-29T15:30:18.810Z,99719.56
2023-03-29T15:32:45.458Z,99718.84
2023-03-29T15:35:24.069Z,99713.03
2023-03-29T15:37:52.429Z,99713.75
2023-03-29T15:40:21.202Z,99701.63
2023-03-29T15:42:47.859Z,99693.88
2023-03-29T15:45:16.093Z,99695.28
2023-03-29T15:47:42.664Z,99690.34
2023-03-29T15:50:10.245Z,99690.75
2023-03-29T15:52:38.520Z,99679.34
2023-03-29T15:55:05.987Z,99671.28
2023-03-29T15:57:32.633Z,99665.78
2023-03-29T15:59:59.336Z,99661.25
2023-03-29T16:02:25.889Z,99651.13
2023-03-29T16:04:52.457Z,99646.91
2023-03-29T16:07:19.600Z,99645.63
2023-03-29T16:09:47.688Z,99633.06
2023-03-29T16:12:14.330Z,99630.66
2023-03-29T16:14:43.027Z,99644.78
2023-03-29T16:17:09.814Z,99643.06
2023-03-29T16:19:36.312Z,99635.91
2023-03-29T16:22:03.805Z,99649.13
2023-03-29T16:24:32.005Z,99646.28
2023-03-29T16:27:00.898Z,99637.41
2023-03-29T16:29:27.498Z,99643.78
2023-03-29T16:31:54.651Z,99633.06
2023-03-29T16:34:21.876Z,99630.38
2023-03-29T16:36:49.696Z,99639.41
2023-03-29T16:39:16.631Z,99630.13
2023-03-29T16:41:43.448Z,99627.31
2023-03-29T16:44:15.202Z,99628.81
2023-03-29T16:46:41.740Z,99617.56
2023-03-29T16:49:12.548Z,99618.56
2023-03-29T16:51:39.031Z,99618.56
2023-03-29T16:54:05.569Z,99613.19
2023-03-29T16:56:32.014Z,99602.47
2023-03-29T16:58:58.544Z,99594.56
2023-03-29T17:01:26.323Z,99592.75
2023-03-29T17:03:52.842Z,99589.19
2023-03-29T17:06:19.432Z,99587.22
2023-03-29T17:08:45.921Z,99577.34
2023-03-29T17:11:12.424Z,99571.97
2023-03-29T17:13:39.030Z,99588.22
2023-03-29T17:16:06.632Z,99578.91
2023-03-29T17:18:34.914Z,99567.22
2023-03-29T17:21:01.458Z,99591.19
2023-03-29T17:23:27.931Z,99591.75
2023-03-29T17:25:55.078Z,99601.91
2023-03-29T17:28:21.715Z,99611.63
2023-03-29T17:30:48.339Z,99618.69
2023-03-29T17:33:22.253Z,99616.00
2023-03-29T17:35:50.559Z,99612.44
2023-03-29T17:38:17.124Z,99632.50
2023-03-29T17:40:43.662Z,99627.44
2023-03-29T17:43:10.080Z,99630.84
2023-03-29T17:45:36.654Z,99633.06
2023-03-29T17:48:06.236Z,99635.19
2023-03-29T17:50:34.249Z,99647.63
2023-03-29T17:53:02.104Z,99646.75
2023-03-29T17:55:28.669Z,99656.34
2023-03-29T17:57:55.167Z,99656.63
2023-03-29T18:00:21.968Z,99669.50
2023-03-29T18:02:48.847Z,99669.34
2023-03-29T18:05:15.562Z,99674.72
2023-03-29T18:07:42.123Z,99673.88
2023-03-29T18:10:11.121Z,99672.03
2023-03-29T18:12:37.632Z,99670.31
2023-03-29T18:15:05.558Z,99666.81
2023-03-29T18:17:32.231Z,99657.94
2023-03-29T18:19:58.786Z,99658.94
2023-03-29T18:22:25.399Z,99657.09
2023-03-29T18:24:51.917Z,99649.88
2023-03-29T18:27:19.811Z,99652.44
2023-03-29T18:29:46.466Z,99646.19
2023-03-29T18:32:13.674Z,99652.56
2023-03-29T18:34:40.499Z,99643.97
2023-03-29T18:37:07.003Z,99645.81
2023-03-29T18:39:33.512Z,99651.19
2023-03-29T18:42:00.068Z,99664.69
2023-03-29T18:44:28.014Z,99680.50
2023-03-29T18:46:54.489Z,99692.22
2023-03-29T18:49:21.209Z,99704.06
2023-03-29T18:51:47.750Z,99711.97
2023-03-29T18:54:14.223Z,99734.25
2023-03-29T18:56:40.783Z,99744.53
2023-03-29T18:59:07.339Z,99779.94
2023-03-29T19:01:35.337Z,99783.91
2023-03-29T19:04:01.850Z,99748.78
2023-03-29T19:06:28.403Z,99763.28
2023-03-29T19:08:55.000Z,99760.50
2023-03-29T19:11:21.467Z,99752.72
2023-03-29T19:13:47.942Z,99752.03
2023-03-29T19:16:14.578Z,99750.34
2023-03-29T19:18:42.703Z,99732.69
2023-03-29T19:21:09.297Z,99747.38
2023-03-29T19:23:35.803Z,99759.94
2023-03-29T19:26:04.073Z,99763.59
2023-03-29T19:28:31.412Z,99767.97
2023-03-29T19:30:59.862Z,99746.94
2023-03-29T19:33:26.487Z,99716.06
2023-03-29T19:35:54.348Z,99727.50
2023-03-29T19:38:21.427Z,99717.75
2023-03-29T19:40:50.104Z,99740.63
2023-03-29T19:43:17.518Z,99753.16
2023-03-29T19:45:44.706Z,99808.31
2023-03-29T19:48:21.145Z,99748.78
2023-03-29T19:50:48.565Z,99727.78
2023-03-29T19:53:16.649Z,99732.44
2023-03-29T19:55:43.566Z,99716.22
2023-03-29T19:58:10.068Z,99693.78
2023-03-29T20:00:36.741Z,99680.22
2023-03-29T20:03:03.666Z,99702.38
2023-03-29T20:05:30.456Z,99720.44
2023-03-29T20:07:57.162Z,99723.81
2023-03-29T20:10:25.105Z,99737.66
2023-03-29T20:12:51.682Z,99750.06
2023-03-29T20:15:18.276Z,99767.97
2023-03-29T20:17:44.857Z,99758.53
2023-03-29T20:20:12.383Z,99745.53
2023-03-29T20:22:38.927Z,99730.91
2023-03-29T20:25:06.045Z,99724.41
2023-03-29T20:27:33.993Z,99701.81
2023-03-29T20:30:00.657Z,99726.09
2023-03-29T20:32:27.165Z,99694.22
2023-03-29T20:34:53.730Z,99717.34
2023-03-29T20:37:20.230Z,99684.19
2023-03-29T20:39:46.748Z,99732.44
2023-03-29T20:42:13.216Z,99745.16
2023-03-29T20:44:41.044Z,99762.19
2023-03-29T20:47:07.572Z,99771.78
2023-03-29T20:49:35.359Z,99777.16
2023-03-29T20:52:01.915Z,99734.28
2023-03-29T20:54:28.557Z,99717.50
2023-03-29T20:56:55.192Z,99720.19
2023-03-29T20:59:21.757Z,99690.00
2023-03-29T21:01:49.553Z,99671.41
2023-03-29T21:04:16.139Z,99653.31
2023-03-29T21:06:42.626Z,99666.88
2023-03-29T21:09:09.139Z,99638.94
2023-03-29T21:11:35.554Z,99640.09
2023-03-29T21:14:02.195Z,99636.25
2023-03-29T21:16:28.753Z,99627.25
2023-03-29T21:18:56.804Z,99626.97
2023-03-29T21:21:23.302Z,99627.13
2023-03-29T21:23:49.845Z,99621.47
2023-03-29T21:26:16.272Z,99646.28
2023-03-29T21:28:43.120Z,99673.94
2023-03-29T21:31:09.855Z,99687.31
2023-03-29T21:33:36.412Z,99667.84
2023-03-29T21:36:04.492Z,99675.75
2023-03-29T21:38:31.039Z,99696.66
2023-03-29T21:40:57.531Z,99681.84
2023-03-29T21:43:24.082Z,99664.88
2023-03-29T21:45:50.663Z,99665.88
2023-03-29T21:48:17.618Z,99668.41
2023-03-29T21:50:44.445Z,99662.38
2023-03-29T21:53:12.257Z,99657.28
2023-03-29T21:55:38.858Z,99654.47
2023-03-29T21:58:05.314Z,99644.91
2023-03-29T22:00:32.109Z,99637.97
2023-03-29T22:02:58.786Z,99622.84
2023-03-29T22:05:25.294Z,99618.94
2023-03-29T22:07:51.880Z,99594.53
2023-03-29T22:10:20.113Z,99577.75
2023-03-29T22:12:46.549Z,99577.91
2023-03-29T22:15:13.029Z,99568.16
2023-03-29T22:17:39.746Z,99564.81
2023-03-29T22:20:06.901Z,99601.03
2023-03-29T22:22:33.395Z,99599.47
2023-03-29T22:24:59.863Z,99605.13
2023-03-29T22:27:27.710Z,99579.22
2023-03-29T22:29:54.211Z,99569.03
2023-03-29T22:32:20.849Z,99564.53
2023-03-29T22:34:47.326Z,99538.03
2023-03-29T22:37:13.822Z,99570.44
2023-03-29T22:39:40.292Z,99570.16
2023-03-29T22:42:06.754Z,99582.56
2023-03-29T22:44:34.511Z,99581.88
2023-03-29T22:47:00.941Z,99574.97
2023-03-29T22:49:27.458Z,99585.41
2023-03-29T22:51:53.947Z,99591.59
2023-03-29T22:54:20.452Z,99590.91
2023-03-29T22:56:46.928Z,99590.75
2023-03-29T22:59:13.505Z,99582.72
2023-03-29T23:01:41.352Z,99586.91
2023-03-29T23:04:08.125Z,99577.50
2023-03-29T23:06:34.666Z,99588.38
2023-03-29T23:09:01.127Z,99577.78
2023-03-29T23:11:27.616Z,99588.66
2023-03-29T23:13:54.088Z,99590.75
2023-03-29T23:16:21.135Z,99595.97
2023-03-29T23:18:49.286Z,99599.94
2023-03-29T23:21:15.930Z,99591.19
2023-03-29T23:23:42.422Z,99601.50
2023-03-29T23:26:08.951Z,99604.88
2023-03-29T23:28:35.621Z,99601.50
2023-03-29T23:31:04.971Z,99611.09
2023-03-29T23:33:33.809Z,99617.97
2023-03-29T23:36:02.921Z,99610.94
2023-03-29T23:38:29.767Z,99613.91
2023-03-29T23:40:57.537Z,99626.28
2023-03-29T23:43:24.125Z,99632.91
2023-03-29T23:45:55.487Z,99629.69
2023-03-29T23:48:22.119Z,99625.91
2023-03-29T23:50:48.546Z,99642.53
2023-03-29T23:53:16.351Z,99645.19
2023-03-29T23:55:42.845Z,99646.59
2023-03-29T23:58:09.360Z,99654.38
